createdAt,value
2023-05-05T00:00:51.613Z,86.67
2023-05-05T00:01:51.694Z,85.15
2023-05-05T00:02:51.871Z,83.73
2023-05-05T00:03:51.943Z,86.62
2023-05-05T00:04:51.880Z,84.59
2023-05-05T00:05:51.981Z,85.13
2023-05-05T00:06:52.031Z,83.08
2023-05-05T00:07:52.112Z,82.83
2023-05-05T00:08:52.141Z,84.83
2023-05-05T00:09:52.193Z,85.70
2023-05-05T00:10:52.290Z,84.52
2023-05-05T00:11:52.376Z,85.97
2023-05-05T00:12:52.426Z,85.14
2023-05-05T00:13:52.523Z,85.41
2023-05-05T00:14:52.543Z,84.80
2023-05-05T00:15:52.562Z,85.90
2023-05-05T00:16:52.670Z,84.28
2023-05-05T00:17:52.799Z,83.01
2023-05-05T00:18:52.865Z,84.24
2023-05-05T00:19:53.685Z,84.28
2023-05-05T00:20:52.856Z,85.74
2023-05-05T00:21:52.939Z,85.43
2023-05-05T00:22:52.999Z,83.32
2023-05-05T00:23:53.021Z,82.70
2023-05-05T00:24:53.101Z,84.68
2023-05-05T00:25:53.150Z,84.24
2023-05-05T00:26:53.219Z,84.19
2023-05-05T00:27:53.290Z,84.87
2023-05-05T00:28:53.343Z,85.41
2023-05-05T00:29:53.423Z,84.69
2023-05-05T00:30:53.501Z,86.14
2023-05-05T00:31:53.553Z,82.76
2023-05-05T00:32:53.671Z,83.72
2023-05-05T00:33:53.694Z,83.35
2023-05-05T00:34:53.699Z,83.74
2023-05-05T00:35:53.749Z,82.35
2023-05-05T00:36:53.848Z,82.95
2023-05-05T00:37:54.065Z,83.57
2023-05-05T00:38:53.978Z,84.16
2023-05-05T00:39:54.030Z,81.13
2023-05-05T00:40:54.125Z,82.59
2023-05-05T00:41:54.127Z,84.13
2023-05-05T00:42:54.234Z,85.52
2023-05-05T00:43:54.310Z,84.40
2023-05-05T00:44:54.347Z,84.47
2023-05-05T00:45:54.430Z,85.62
2023-05-05T00:46:54.471Z,84.47
2023-05-05T00:47:54.653Z,84.44
2023-05-05T00:48:54.696Z,86.24
2023-05-05T00:49:54.648Z,85.08
2023-05-05T00:50:54.690Z,85.27
2023-05-05T00:51:54.868Z,85.02
2023-05-05T00:52:54.846Z,86.51
2023-05-05T00:53:54.893Z,85.01
2023-05-05T00:54:54.941Z,85.40
2023-05-05T00:55:55.037Z,85.19
2023-05-05T00:56:55.104Z,84.72
2023-05-05T00:57:55.167Z,84.90
2023-05-05T00:58:55.246Z,87.26
2023-05-05T00:59:55.282Z,88.12
2023-05-05T01:00:55.355Z,88.70
2023-05-05T01:01:55.473Z,88.62
2023-05-05T01:02:55.562Z,87.32
2023-05-05T01:03:55.649Z,87.09
2023-05-05T01:04:55.651Z,87.39
2023-05-05T01:05:55.632Z,87.34
2023-05-05T01:06:55.688Z,88.41
2023-05-05T01:07:55.754Z,90.14
2023-05-05T01:08:55.823Z,88.68
2023-05-05T01:10:07.604Z,89.02
2023-05-05T01:10:56.885Z,89.14
2023-05-05T01:11:55.829Z,89.20
2023-05-05T01:12:55.921Z,89.40
2023-05-05T01:13:55.805Z,90.23
2023-05-05T01:14:55.788Z,89.39
2023-05-05T01:15:55.827Z,90.18
2023-05-05T01:16:55.811Z,90.76
2023-05-05T01:17:55.830Z,93.52
2023-05-05T01:18:55.819Z,93.11
2023-05-05T01:19:55.977Z,93.48
2023-05-05T01:20:55.938Z,90.36
2023-05-05T01:21:56.026Z,92.13
2023-05-05T01:22:56.074Z,92.40
2023-05-05T01:23:56.105Z,90.45
2023-05-05T01:24:56.165Z,94.06
2023-05-05T01:25:56.235Z,94.54
2023-05-05T01:26:56.299Z,92.63
2023-05-05T01:27:56.376Z,93.22
2023-05-05T01:28:58.248Z,95.19
2023-05-05T01:29:56.508Z,93.95
2023-05-05T01:30:56.563Z,93.65
2023-05-05T01:31:56.751Z,94.60
2023-05-05T01:32:56.729Z,91.59
2023-05-05T01:33:56.749Z,91.57
2023-05-05T01:34:56.758Z,95.18
2023-05-05T01:35:56.838Z,93.95
2023-05-05T01:36:56.903Z,95.33
2023-05-05T01:37:56.973Z,96.27
2023-05-05T01:38:57.024Z,96.01
2023-05-05T01:39:57.013Z,95.30
2023-05-05T01:40:57.109Z,95.96
2023-05-05T01:41:57.146Z,95.92
2023-05-05T01:42:57.224Z,96.50
2023-05-05T01:43:57.258Z,95.39
2023-05-05T01:44:57.327Z,95.12
2023-05-05T01:45:57.480Z,95.04
2023-05-05T01:46:57.431Z,95.92
2023-05-05T01:47:57.539Z,95.37
2023-05-05T01:48:57.568Z,95.34
2023-05-05T01:49:57.620Z,94.82
2023-05-05T01:50:57.669Z,96.01
2023-05-05T01:51:57.738Z,93.83
2023-05-05T01:52:57.768Z,95.94
2023-05-05T01:53:57.837Z,95.39
2023-05-05T01:54:57.886Z,95.31
2023-05-05T01:55:57.976Z,93.41
2023-05-05T01:56:57.982Z,93.19
2023-05-05T01:57:58.034Z,92.44
2023-05-05T01:58:58.122Z,94.10
2023-05-05T01:59:58.182Z,95.06
2023-05-05T02:00:58.231Z,95.35
2023-05-05T02:01:58.295Z,95.62
2023-05-05T02:02:58.427Z,92.93
2023-05-05T02:03:58.375Z,95.00
2023-05-05T02:04:58.501Z,92.95
2023-05-05T02:05:58.506Z,95.33
2023-05-05T02:06:58.583Z,93.94
2023-05-05T02:07:58.687Z,94.23
2023-05-05T02:08:58.693Z,95.96
2023-05-05T02:09:58.691Z,95.36
2023-05-05T02:10:58.733Z,95.32
2023-05-05T02:11:58.789Z,93.11
2023-05-05T02:12:58.913Z,94.58
2023-05-05T02:13:58.943Z,95.46
2023-05-05T02:14:58.937Z,93.34
2023-05-05T02:15:59.014Z,93.26
2023-05-05T02:16:59.024Z,93.63
2023-05-05T02:17:59.096Z,93.44
2023-05-05T02:18:59.090Z,94.26
2023-05-05T02:19:59.129Z,93.95
2023-05-05T02:20:59.233Z,95.30
2023-05-05T02:21:59.218Z,94.49
2023-05-05T02:22:59.296Z,94.97
2023-05-05T02:23:59.267Z,96.34
2023-05-05T02:24:59.408Z,96.32
2023-05-05T02:25:59.405Z,95.32
2023-05-05T02:26:59.372Z,95.13
2023-05-05T02:27:59.431Z,92.76
2023-05-05T02:28:59.472Z,95.55
2023-05-05T02:29:59.536Z,92.44
2023-05-05T02:30:59.659Z,93.03
2023-05-05T02:31:59.589Z,93.18
2023-05-05T02:33:00.348Z,93.49
2023-05-05T02:33:59.650Z,95.09
2023-05-05T02:34:59.665Z,94.45
2023-05-05T02:35:59.775Z,93.22
2023-05-05T02:36:59.762Z,93.55
2023-05-05T02:37:59.794Z,91.69
2023-05-05T02:38:59.837Z,90.71
2023-05-05T02:39:59.943Z,92.72
2023-05-05T02:40:59.923Z,90.76
2023-05-05T02:41:59.959Z,90.26
2023-05-05T02:43:00.059Z,92.97
2023-05-05T02:44:00.032Z,92.70
2023-05-05T02:45:00.061Z,93.79
2023-05-05T02:46:00.187Z,92.35
2023-05-05T02:47:00.173Z,93.90
2023-05-05T02:48:00.287Z,93.41
2023-05-05T02:49:00.288Z,92.53
2023-05-05T02:50:00.288Z,92.62
2023-05-05T02:51:00.365Z,94.92
2023-05-05T02:52:00.451Z,94.08
2023-05-05T02:53:00.629Z,93.31
2023-05-05T02:54:00.522Z,92.65
2023-05-05T02:55:00.586Z,93.70
2023-05-05T02:56:00.603Z,93.30
2023-05-05T02:57:00.739Z,94.23
2023-05-05T02:58:00.756Z,93.61
2023-05-05T02:59:00.843Z,92.76
2023-05-05T03:00:00.881Z,94.48
2023-05-05T03:01:00.951Z,91.27
2023-05-05T03:02:00.980Z,92.03
2023-05-05T03:03:01.197Z,93.76
2023-05-05T03:04:01.116Z,90.92
2023-05-05T03:05:01.199Z,93.63
2023-05-05T03:06:01.251Z,92.41
2023-05-05T03:07:01.319Z,93.57
2023-05-05T03:08:01.389Z,91.58
2023-05-05T03:09:01.509Z,92.57
2023-05-05T03:10:01.478Z,91.74
2023-05-05T03:11:02.285Z,92.99
2023-05-05T03:12:01.619Z,93.40
2023-05-05T03:13:01.705Z,93.69
2023-05-05T03:14:01.710Z,93.54
2023-05-05T03:15:01.789Z,93.29
2023-05-05T03:16:01.945Z,92.67
2023-05-05T03:17:01.916Z,93.31
2023-05-05T03:18:02.024Z,92.55
2023-05-05T03:19:02.057Z,93.17
2023-05-05T03:20:03.757Z,92.89
2023-05-05T03:21:02.157Z,92.49
2023-05-05T03:22:02.206Z,92.03
2023-05-05T03:23:02.251Z,91.51
2023-05-05T03:24:02.308Z,91.81
2023-05-05T03:25:02.344Z,91.75
2023-05-05T03:26:02.401Z,91.63
2023-05-05T03:27:02.414Z,92.86
2023-05-05T03:28:02.494Z,92.29
2023-05-05T03:29:02.597Z,91.92
2023-05-05T03:30:02.601Z,92.71
2023-05-05T03:31:02.642Z,92.54
2023-05-05T03:32:02.774Z,94.23
2023-05-05T03:33:02.752Z,93.87
2023-05-05T03:34:02.744Z,94.13
2023-05-05T03:35:02.755Z,93.80
2023-05-05T03:36:02.834Z,93.10
2023-05-05T03:37:02.848Z,92.70
2023-05-05T03:38:02.869Z,92.34
2023-05-05T03:39:02.908Z,92.39
2023-05-05T03:40:02.983Z,92.84
2023-05-05T03:41:02.983Z,93.78
2023-05-05T03:42:02.992Z,94.46
2023-05-05T03:43:03.332Z,95.64
2023-05-05T03:44:03.090Z,95.38
2023-05-05T03:45:03.093Z,95.64
2023-05-05T03:46:03.855Z,96.18
2023-05-05T03:47:03.187Z,94.64
2023-05-05T03:48:03.242Z,95.76
2023-05-05T03:49:03.315Z,95.86
2023-05-05T03:50:03.295Z,96.52
2023-05-05T03:51:03.400Z,96.46
2023-05-05T03:52:03.428Z,95.42
2023-05-05T03:53:03.487Z,95.89
2023-05-05T03:54:03.481Z,96.05
2023-05-05T03:55:03.512Z,94.91
2023-05-05T03:56:03.562Z,95.34
2023-05-05T03:57:03.546Z,96.67
2023-05-05T03:58:03.596Z,96.68
2023-05-05T03:59:03.616Z,96.76
2023-05-05T04:00:03.636Z,96.23
2023-05-05T04:01:03.704Z,96.12
2023-05-05T04:02:03.718Z,95.59
2023-05-05T04:03:03.889Z,97.26
2023-05-05T04:04:03.796Z,96.54
2023-05-05T04:05:03.831Z,96.24
2023-05-05T04:06:03.906Z,97.24
2023-05-05T04:07:04.019Z,97.19
2023-05-05T04:08:03.929Z,96.70
2023-05-05T04:09:04.010Z,98.74
2023-05-05T04:10:04.046Z,98.61
2023-05-05T04:11:04.052Z,97.41
2023-05-05T04:12:04.119Z,98.08
2023-05-05T04:13:04.233Z,98.02
2023-05-05T04:14:04.168Z,97.71
2023-05-05T04:15:04.229Z,96.74
2023-05-05T04:16:04.323Z,96.96
2023-05-05T04:17:04.338Z,99.03
2023-05-05T04:18:04.455Z,98.93
2023-05-05T04:19:04.428Z,98.21
2023-05-05T04:20:04.522Z,98.85
2023-05-05T04:21:04.559Z,98.16
2023-05-05T04:22:04.729Z,98.06
2023-05-05T04:23:04.706Z,98.32
2023-05-05T04:24:04.758Z,96.95
2023-05-05T04:25:04.826Z,98.61
2023-05-05T04:26:04.847Z,96.82
2023-05-05T04:27:04.920Z,97.63
2023-05-05T04:28:05.005Z,98.32
2023-05-05T04:29:05.049Z,100.04
2023-05-05T04:30:05.133Z,97.78
2023-05-05T04:31:05.305Z,99.14
2023-05-05T04:32:05.161Z,99.55
2023-05-05T04:33:05.239Z,98.64
2023-05-05T04:34:05.318Z,100.19
2023-05-05T04:35:05.353Z,100.78
2023-05-05T04:36:05.407Z,100.52
2023-05-05T04:37:05.466Z,100.77
2023-05-05T04:38:05.527Z,101.08
2023-05-05T04:39:05.618Z,101.65
2023-05-05T04:40:05.615Z,100.75
2023-05-05T04:41:05.595Z,99.01
2023-05-05T04:42:05.652Z,100.67
2023-05-05T04:43:05.722Z,100.98
2023-05-05T04:44:05.742Z,101.10
2023-05-05T04:45:05.771Z,102.75
2023-05-05T04:46:05.968Z,103.03
2023-05-05T04:47:05.876Z,102.59
2023-05-05T04:48:05.983Z,102.44
2023-05-05T04:49:05.996Z,104.64
2023-05-05T04:50:06.224Z,104.71
2023-05-05T04:51:06.075Z,105.27
2023-05-05T04:52:06.096Z,104.24
2023-05-05T04:53:06.162Z,105.87
2023-05-05T04:54:06.236Z,105.82
2023-05-05T04:55:06.203Z,105.01
2023-05-05T04:56:06.281Z,107.01
2023-05-05T04:57:06.245Z,107.47
2023-05-05T04:58:06.318Z,107.90
2023-05-05T04:59:06.349Z,106.57
2023-05-05T05:00:06.518Z,108.03
2023-05-05T05:01:06.373Z,109.91
2023-05-05T05:02:06.448Z,109.88
2023-05-05T05:03:06.513Z,109.36
2023-05-05T05:04:06.502Z,110.20
2023-05-05T05:05:06.497Z,110.80
2023-05-05T05:06:06.529Z,112.21
2023-05-05T05:07:06.582Z,110.83
2023-05-05T05:08:06.877Z,113.61
2023-05-05T05:09:06.582Z,113.62
2023-05-05T05:10:06.789Z,114.41
2023-05-05T05:11:07.347Z,114.62
2023-05-05T05:12:06.629Z,115.28
2023-05-05T05:13:06.671Z,115.70
2023-05-05T05:14:06.663Z,116.46
2023-05-05T05:15:06.667Z,117.99
2023-05-05T05:16:06.719Z,117.56
2023-05-05T05:17:06.684Z,116.32
2023-05-05T05:18:06.784Z,116.03
2023-05-05T05:19:06.753Z,116.44
2023-05-05T05:20:06.919Z,118.96
2023-05-05T05:21:06.766Z,118.09
2023-05-05T05:22:06.754Z,119.36
2023-05-05T05:23:06.838Z,120.70
2023-05-05T05:24:06.827Z,119.20
2023-05-05T05:25:06.872Z,120.62
2023-05-05T05:26:07.910Z,120.10
2023-05-05T05:27:09.688Z,121.08
2023-05-05T05:28:10.723Z,123.04
2023-05-05T05:29:06.970Z,123.29
2023-05-05T05:30:07.208Z,123.37
2023-05-05T05:31:06.907Z,123.36
2023-05-05T05:32:07.055Z,123.45
2023-05-05T05:33:06.901Z,129.71
2023-05-05T05:34:06.815Z,161.17
2023-05-05T05:35:06.960Z,157.86
2023-05-05T05:36:06.818Z,157.18
2023-05-05T05:37:06.807Z,161.38
2023-05-05T05:38:07.370Z,166.75
2023-05-05T05:39:06.870Z,169.83
2023-05-05T05:40:06.957Z,170.10
2023-05-05T05:41:07.392Z,175.91
2023-05-05T05:42:06.988Z,174.87
2023-05-05T05:43:06.761Z,170.51
2023-05-05T05:44:06.761Z,169.79
2023-05-05T05:45:06.737Z,170.30
2023-05-05T05:46:09.035Z,173.06
2023-05-05T05:47:06.989Z,186.59
2023-05-05T05:48:07.112Z,189.85
2023-05-05T05:49:07.835Z,188.35
2023-05-05T05:50:07.328Z,191.97
2023-05-05T05:51:07.867Z,197.56
2023-05-05T05:52:07.111Z,197.20
2023-05-05T05:53:07.163Z,206.17
2023-05-05T05:54:07.211Z,195.00
2023-05-05T05:55:07.277Z,188.57
2023-05-05T05:56:07.333Z,192.44
2023-05-05T05:57:07.422Z,192.03
2023-05-05T05:58:07.479Z,188.99
2023-05-05T05:59:07.630Z,184.03
2023-05-05T06:00:07.927Z,179.01
2023-05-05T06:01:07.711Z,174.56
2023-05-05T06:02:07.766Z,171.47
2023-05-05T06:03:08.173Z,169.13
2023-05-05T06:04:07.957Z,164.88
2023-05-05T06:05:07.894Z,164.28
2023-05-05T06:06:07.939Z,165.05
2023-05-05T06:07:08.835Z,163.99
2023-05-05T06:08:08.022Z,161.85
2023-05-05T06:09:08.146Z,162.25
2023-05-05T06:10:25.659Z,186.67
2023-05-05T06:11:09.137Z,187.09
2023-05-05T06:12:08.104Z,184.31
2023-05-05T06:13:08.201Z,177.42
2023-05-05T06:14:08.085Z,170.10
2023-05-05T06:15:08.126Z,167.79
2023-05-05T06:16:08.108Z,167.36
2023-05-05T06:17:08.092Z,166.26
2023-05-05T06:18:08.078Z,163.89
2023-05-05T06:19:08.185Z,165.49
2023-05-05T06:20:09.022Z,166.60
2023-05-05T06:21:08.881Z,169.46
2023-05-05T06:22:08.023Z,168.82
2023-05-05T06:23:08.057Z,168.35
2023-05-05T06:24:08.840Z,170.71
2023-05-05T06:25:08.139Z,170.04
2023-05-05T06:26:08.164Z,167.61
2023-05-05T06:27:09.875Z,169.44
2023-05-05T06:28:08.223Z,168.22
2023-05-05T06:29:09.570Z,166.10
2023-05-05T06:30:08.403Z,166.86
2023-05-05T06:31:08.301Z,163.71
2023-05-05T06:32:08.221Z,161.04
2023-05-05T06:33:08.397Z,159.19
2023-05-05T06:34:08.198Z,158.60
2023-05-05T06:35:08.240Z,155.91
2023-05-05T06:36:08.230Z,149.97
2023-05-05T06:37:08.210Z,143.21
2023-05-05T06:38:08.177Z,144.03
2023-05-05T06:39:09.949Z,137.03
2023-05-05T06:40:08.388Z,149.84
2023-05-05T06:41:08.126Z,156.56
2023-05-05T06:42:08.146Z,141.03
2023-05-05T06:43:08.132Z,131.53
2023-05-05T06:44:08.167Z,112.65
2023-05-05T06:45:08.154Z,97.71
2023-05-05T06:46:08.116Z,84.49
2023-05-05T06:47:08.146Z,63.15
2023-05-05T06:48:08.246Z,59.28
2023-05-05T06:49:08.189Z,67.13
2023-05-05T06:50:08.270Z,60.64
2023-05-05T06:51:08.064Z,55.70
2023-05-05T06:52:08.145Z,47.28
2023-05-05T06:53:08.146Z,48.38
2023-05-05T06:54:08.337Z,40.55
2023-05-05T06:55:08.255Z,31.95
2023-05-05T06:56:08.258Z,32.49
2023-05-05T06:57:09.916Z,32.63
2023-05-05T06:58:08.360Z,34.01
2023-05-05T06:59:08.423Z,29.04
2023-05-05T07:00:08.667Z,25.00
2023-05-05T07:01:08.494Z,23.99
2023-05-05T07:02:08.528Z,25.00
2023-05-05T07:03:08.565Z,24.97
2023-05-05T07:04:08.932Z,24.71
2023-05-05T07:05:08.863Z,29.15
2023-05-05T07:06:08.660Z,32.08
2023-05-05T07:07:08.672Z,25.61
2023-05-05T07:08:08.755Z,27.42
2023-05-05T07:09:09.369Z,27.20
2023-05-05T07:10:09.019Z,26.64
2023-05-05T07:11:08.811Z,27.13
2023-05-05T07:12:08.922Z,25.01
2023-05-05T07:13:09.135Z,26.59
2023-05-05T07:14:09.125Z,25.25
2023-05-05T07:15:23.317Z,27.06
2023-05-05T07:16:10.056Z,23.29
2023-05-05T07:17:09.009Z,19.21
2023-05-05T07:18:08.935Z,20.24
2023-05-05T07:19:08.910Z,15.76
2023-05-05T07:20:09.127Z,13.84
2023-05-05T07:21:08.932Z,25.00
2023-05-05T07:22:08.945Z,24.85
2023-05-05T07:23:08.873Z,25.16
2023-05-05T07:24:08.934Z,23.89
2023-05-05T07:25:08.932Z,24.44
2023-05-05T07:26:08.858Z,25.00
2023-05-05T07:27:08.850Z,26.92
2023-05-05T07:28:08.850Z,31.34
2023-05-05T07:29:08.890Z,33.32
2023-05-05T07:30:12.576Z,30.55
2023-05-05T07:31:09.847Z,31.07
2023-05-05T07:32:08.881Z,32.94
2023-05-05T07:33:08.898Z,34.75
2023-05-05T07:34:08.878Z,43.51
2023-05-05T07:35:08.881Z,52.16
2023-05-05T07:36:08.798Z,57.38
2023-05-05T07:37:08.835Z,54.37
2023-05-05T07:38:10.801Z,50.30
2023-05-05T07:39:08.847Z,49.73
2023-05-05T07:40:09.641Z,49.91
2023-05-05T07:41:08.751Z,55.87
2023-05-05T07:42:08.922Z,55.79
2023-05-05T07:43:08.726Z,52.07
2023-05-05T07:44:08.705Z,50.68
2023-05-05T07:45:08.728Z,56.33
2023-05-05T07:46:08.798Z,57.13
2023-05-05T07:47:08.736Z,52.67
2023-05-05T07:48:08.724Z,62.37
2023-05-05T07:49:08.696Z,62.19
2023-05-05T07:50:08.854Z,59.54
2023-05-05T07:51:08.752Z,57.90
2023-05-05T07:52:08.800Z,56.26
2023-05-05T07:53:14.324Z,57.40
2023-05-05T07:54:09.863Z,57.45
2023-05-05T07:55:08.747Z,57.54
2023-05-05T07:56:08.772Z,58.41
2023-05-05T07:57:08.823Z,59.77
2023-05-05T07:58:08.761Z,55.74
2023-05-05T07:59:08.722Z,55.52
2023-05-05T08:00:08.897Z,53.06
2023-05-05T08:01:08.719Z,50.75
2023-05-05T08:02:08.765Z,46.84
2023-05-05T08:03:11.247Z,45.46
2023-05-05T08:04:08.971Z,44.01
2023-05-05T08:05:09.106Z,38.27
2023-05-05T08:06:08.671Z,33.80
2023-05-05T08:07:08.663Z,32.92
2023-05-05T08:08:08.678Z,34.31
2023-05-05T08:09:08.773Z,37.74
2023-05-05T08:10:08.720Z,36.31
2023-05-05T08:11:08.642Z,36.71
2023-05-05T08:12:08.646Z,44.07
2023-05-05T08:13:08.653Z,42.08
2023-05-05T08:14:08.645Z,50.05
2023-05-05T08:15:08.941Z,55.75
2023-05-05T08:16:08.680Z,59.91
2023-05-05T08:17:08.918Z,66.76
2023-05-05T08:18:08.575Z,67.09
2023-05-05T08:19:21.082Z,62.53
2023-05-05T08:20:09.597Z,62.74
2023-05-05T08:21:08.764Z,63.98
2023-05-05T08:22:08.556Z,67.71
2023-05-05T08:23:08.579Z,76.07
2023-05-05T08:24:09.404Z,95.37
2023-05-05T08:25:08.809Z,98.01
2023-05-05T08:26:08.548Z,97.74
2023-05-05T08:27:08.543Z,124.67
2023-05-05T08:28:08.521Z,151.75
2023-05-05T08:29:08.698Z,175.44
2023-05-05T08:30:08.511Z,185.90
2023-05-05T08:31:08.628Z,189.30
2023-05-05T08:32:08.619Z,190.86
2023-05-05T08:33:08.718Z,190.64
2023-05-05T08:34:08.933Z,180.31
2023-05-05T08:35:09.107Z,168.81
2023-05-05T08:36:08.914Z,164.73
2023-05-05T08:37:08.911Z,159.67
2023-05-05T08:38:08.979Z,156.63
2023-05-05T08:39:09.054Z,157.07
2023-05-05T08:40:09.069Z,152.90
2023-05-05T08:41:09.271Z,164.12
2023-05-05T08:42:09.143Z,165.12
2023-05-05T08:43:09.235Z,174.90
2023-05-05T08:44:09.448Z,191.66
2023-05-05T08:45:09.713Z,195.45
2023-05-05T08:46:09.925Z,214.59
2023-05-05T08:47:09.424Z,206.51
2023-05-05T08:48:09.463Z,212.67
2023-05-05T08:49:09.424Z,213.83
2023-05-05T08:50:09.565Z,225.36
2023-05-05T08:51:09.518Z,209.01
2023-05-05T08:52:09.596Z,208.62
2023-05-05T08:53:09.706Z,205.89
2023-05-05T08:54:09.683Z,203.61
2023-05-05T08:55:09.830Z,208.36
2023-05-05T08:56:09.808Z,228.76
2023-05-05T08:57:09.848Z,214.47
2023-05-05T08:58:09.938Z,222.37
2023-05-05T08:59:09.924Z,223.75
2023-05-05T09:00:09.950Z,214.65
2023-05-05T09:01:10.024Z,206.18
2023-05-05T09:02:10.053Z,221.20
2023-05-05T09:03:10.091Z,212.72
2023-05-05T09:04:10.047Z,216.91
2023-05-05T09:05:10.389Z,219.28
2023-05-05T09:06:10.160Z,237.86
2023-05-05T09:07:10.220Z,244.86
2023-05-05T09:08:10.239Z,234.12
2023-05-05T09:09:10.293Z,214.98
2023-05-05T09:10:10.364Z,205.22
2023-05-05T09:11:10.371Z,196.77
2023-05-05T09:12:10.961Z,206.80
2023-05-05T09:13:11.493Z,211.70
2023-05-05T09:14:10.530Z,210.09
2023-05-05T09:15:10.804Z,214.67
2023-05-05T09:16:10.603Z,218.14
2023-05-05T09:17:10.647Z,208.46
2023-05-05T09:18:10.713Z,212.98
2023-05-05T09:19:10.679Z,221.25
2023-05-05T09:20:10.778Z,210.19
2023-05-05T09:21:10.797Z,210.37
2023-05-05T09:22:10.835Z,202.37
2023-05-05T09:23:10.897Z,208.29
2023-05-05T09:24:10.938Z,208.43
2023-05-05T09:25:10.962Z,211.34
2023-05-05T09:26:11.921Z,216.47
2023-05-05T09:27:11.052Z,218.62
2023-05-05T09:28:11.343Z,225.95
2023-05-05T09:29:11.475Z,224.77
2023-05-05T09:30:11.255Z,208.92
2023-05-05T09:31:11.364Z,212.22
2023-05-05T09:32:11.418Z,202.90
2023-05-05T09:33:11.611Z,200.95
2023-05-05T09:34:11.464Z,218.60
2023-05-05T09:35:11.557Z,239.29
2023-05-05T09:36:11.561Z,250.00
2023-05-05T09:37:11.600Z,249.73
2023-05-05T09:38:11.643Z,250.00
2023-05-05T09:39:12.033Z,250.00
2023-05-05T09:40:11.777Z,241.81
2023-05-05T09:41:11.773Z,239.39
2023-05-05T09:42:11.845Z,230.34
2023-05-05T09:43:11.899Z,228.34
2023-05-05T09:44:12.035Z,225.93
2023-05-05T09:45:12.057Z,228.55
2023-05-05T09:46:11.993Z,224.95
2023-05-05T09:47:26.041Z,211.56
2023-05-05T09:48:13.126Z,206.48
2023-05-05T09:49:12.025Z,206.02
2023-05-05T09:50:11.998Z,196.54
2023-05-05T09:51:11.988Z,191.63
2023-05-05T09:52:11.975Z,192.86
2023-05-05T09:53:12.001Z,202.27
2023-05-05T09:54:12.022Z,219.79
2023-05-05T09:55:11.977Z,217.03
2023-05-05T09:56:11.945Z,214.42
2023-05-05T09:57:11.963Z,209.81
2023-05-05T09:58:11.976Z,190.91
2023-05-05T09:59:11.999Z,180.52
2023-05-05T10:00:12.128Z,178.09
2023-05-05T10:01:12.006Z,167.25
2023-05-05T10:02:11.962Z,176.67
2023-05-05T10:03:12.055Z,186.83
2023-05-05T10:04:12.942Z,192.61
2023-05-05T10:05:12.073Z,197.93
2023-05-05T10:06:12.062Z,203.33
2023-05-05T10:07:12.109Z,189.80
2023-05-05T10:08:12.153Z,181.05
2023-05-05T10:09:12.176Z,176.05
2023-05-05T10:10:12.246Z,176.20
2023-05-05T10:11:12.220Z,188.61
2023-05-05T10:12:12.345Z,190.16
2023-05-05T10:13:12.382Z,183.85
2023-05-05T10:14:12.335Z,170.88
2023-05-05T10:15:12.388Z,168.38
2023-05-05T10:16:12.486Z,150.05
2023-05-05T10:17:12.811Z,145.11
2023-05-05T10:18:13.039Z,144.70
2023-05-05T10:19:13.483Z,131.30
2023-05-05T10:20:12.551Z,133.45
2023-05-05T10:21:12.616Z,134.29
2023-05-05T10:22:12.627Z,132.52
2023-05-05T10:23:12.967Z,126.23
2023-05-05T10:24:12.726Z,132.10
2023-05-05T10:25:12.765Z,139.39
2023-05-05T10:26:12.765Z,136.93
2023-05-05T10:27:12.805Z,145.53
2023-05-05T10:28:12.950Z,163.39
2023-05-05T10:29:12.925Z,174.23
2023-05-05T10:30:13.476Z,179.04
2023-05-05T10:31:24.489Z,189.57
2023-05-05T10:32:40.694Z,189.85
2023-05-05T10:33:30.268Z,189.64
2023-05-05T10:34:14.055Z,189.67
2023-05-05T10:35:12.925Z,190.58
2023-05-05T10:36:13.009Z,180.00
2023-05-05T10:37:13.437Z,172.25
2023-05-05T10:38:13.072Z,172.21
2023-05-05T10:39:12.945Z,172.29
2023-05-05T10:40:13.017Z,166.68
2023-05-05T10:41:12.896Z,169.74
2023-05-05T10:42:12.905Z,170.45
2023-05-05T10:43:12.953Z,168.26
2023-05-05T10:44:12.897Z,168.94
2023-05-05T10:45:13.036Z,171.06
2023-05-05T10:46:12.914Z,165.40
2023-05-05T10:47:12.850Z,168.36
2023-05-05T10:48:12.935Z,167.15
2023-05-05T10:49:13.542Z,173.32
2023-05-05T10:50:13.034Z,172.54
2023-05-05T10:51:15.329Z,178.48
2023-05-05T10:52:13.848Z,178.59
2023-05-05T10:53:12.815Z,179.27
2023-05-05T10:54:12.950Z,180.39
2023-05-05T10:55:13.175Z,181.38
2023-05-05T10:56:12.832Z,178.80
2023-05-05T10:57:12.760Z,182.72
2023-05-05T10:58:12.812Z,184.97
2023-05-05T10:59:12.796Z,179.93
2023-05-05T11:00:15.071Z,184.50
2023-05-05T11:01:12.795Z,186.43
2023-05-05T11:02:12.747Z,185.80
2023-05-05T11:03:12.825Z,182.30
2023-05-05T11:04:12.778Z,178.30
2023-05-05T11:05:12.876Z,199.33
2023-05-05T11:06:12.863Z,196.47
2023-05-05T11:07:15.132Z,168.80
2023-05-05T11:08:12.851Z,126.78
2023-05-05T11:09:12.859Z,121.19
2023-05-05T11:10:12.845Z,96.18
2023-05-05T11:11:12.850Z,114.20
2023-05-05T11:12:12.833Z,108.02
2023-05-05T11:13:12.885Z,110.28
2023-05-05T11:14:13.778Z,84.06
2023-05-05T11:15:12.955Z,67.32
2023-05-05T11:16:12.875Z,74.22
2023-05-05T11:17:12.854Z,100.50
2023-05-05T11:18:12.849Z,128.71
2023-05-05T11:19:12.823Z,183.23
2023-05-05T11:20:12.817Z,202.53
2023-05-05T11:21:12.881Z,206.15
2023-05-05T11:22:12.788Z,161.23
2023-05-05T11:23:15.220Z,149.18
2023-05-05T11:24:12.779Z,135.76
2023-05-05T11:25:12.765Z,119.58
2023-05-05T11:26:12.741Z,97.39
2023-05-05T11:27:12.716Z,100.64
2023-05-05T11:28:12.727Z,105.04
2023-05-05T11:29:12.744Z,118.73
2023-05-05T11:30:12.845Z,129.56
2023-05-05T11:31:12.723Z,134.59
2023-05-05T11:32:12.689Z,156.41
2023-05-05T11:33:12.696Z,176.00
2023-05-05T11:34:12.684Z,193.77
2023-05-05T11:35:12.700Z,198.86
2023-05-05T11:36:12.718Z,189.73
2023-05-05T11:37:12.735Z,189.93
2023-05-05T11:38:12.694Z,182.16
2023-05-05T11:39:12.657Z,177.45
2023-05-05T11:40:12.666Z,179.04
2023-05-05T11:41:12.708Z,180.56
2023-05-05T11:42:12.663Z,177.30
2023-05-05T11:43:12.668Z,175.46
2023-05-05T11:44:12.624Z,176.07
2023-05-05T11:45:12.609Z,177.75
2023-05-05T11:46:13.533Z,179.06
2023-05-05T11:47:12.613Z,183.76
2023-05-05T11:48:12.660Z,183.85
2023-05-05T11:49:12.595Z,182.87
2023-05-05T11:50:12.609Z,184.80
2023-05-05T11:51:12.563Z,149.40
2023-05-05T11:52:12.623Z,167.96
2023-05-05T11:53:12.997Z,175.96
2023-05-05T11:54:12.534Z,176.88
2023-05-05T11:55:12.536Z,156.19
2023-05-05T11:56:12.554Z,153.94
2023-05-05T11:57:12.538Z,155.35
2023-05-05T11:58:13.051Z,157.22
2023-05-05T11:59:12.530Z,151.28
2023-05-05T12:00:12.552Z,168.52
2023-05-05T12:01:12.532Z,181.53
2023-05-05T12:02:12.477Z,192.21
2023-05-05T12:03:12.776Z,203.65
2023-05-05T12:04:12.585Z,213.64
2023-05-05T12:05:12.485Z,222.54
2023-05-05T12:06:12.474Z,231.20
2023-05-05T12:07:12.464Z,234.17
2023-05-05T12:08:12.490Z,239.53
2023-05-05T12:09:12.556Z,239.59
2023-05-05T12:10:12.623Z,238.24
2023-05-05T12:11:12.597Z,234.76
2023-05-05T12:12:12.623Z,230.08
2023-05-05T12:13:12.730Z,225.83
2023-05-05T12:14:12.718Z,222.86
2023-05-05T12:15:12.740Z,224.41
2023-05-05T12:16:12.861Z,219.03
2023-05-05T12:17:12.822Z,184.09
2023-05-05T12:18:12.947Z,189.90
2023-05-05T12:19:12.905Z,200.75
2023-05-05T12:20:13.324Z,198.76
2023-05-05T12:21:12.988Z,191.92
2023-05-05T12:22:13.016Z,187.91
2023-05-05T12:23:13.084Z,178.19
2023-05-05T12:24:13.090Z,176.18
2023-05-05T12:25:13.646Z,153.11
2023-05-05T12:26:13.181Z,168.20
2023-05-05T12:27:13.233Z,136.38
2023-05-05T12:28:13.342Z,131.70
2023-05-05T12:29:13.345Z,137.02
2023-05-05T12:30:13.399Z,132.83
2023-05-05T12:31:13.475Z,138.09
2023-05-05T12:32:13.507Z,137.89
2023-05-05T12:33:13.538Z,115.79
2023-05-05T12:34:13.547Z,126.95
2023-05-05T12:35:13.599Z,120.37
2023-05-05T12:36:13.628Z,68.37
2023-05-05T12:37:13.655Z,87.93
2023-05-05T12:38:13.718Z,74.63
2023-05-05T12:39:13.740Z,81.03
2023-05-05T12:40:13.760Z,112.89
2023-05-05T12:41:13.982Z,103.49